Osage River (Missouri), Tuscumbia (06926080)

StateMissouriLatestUnknown (1690 cfs)
RiverOsage RiverRatingObservedEstimated
Updated2020-07-13 20:00 (32 minutes ago)Flood - The river is flooding. Obstacles can be treacherous or deadly. The river should be avoided at this stage for casual trips and definitely for the inexperienced. Trips should be attempted only with protective gear and equipment.Flood(none)(none)
Discharge1690 cfs (median: 24200 cfs)High - The river is high and potentially dangerous, especially for the young and / or inexperienced. Normal stream obstacles are sometimes difficult to navigate. Extended distances can be attempted, but canoe travel may not be advisable.High(none)(none)
Height2.08 feetGood - Conditions are ideal for a canoe or kayak. Boats typically will drag on fewer than one-quarter of riffles, if at all, and portages are unnecessary or rare. Normal float lengths can be attempted without a problem.Good(none)(none)
TrendSteady (falling over 24 hours)Low - River is low but can still be floated. Some riffles are okay but most come with significant dragging and might need a portage. Float lengths should be reduced to accommodate low flow, dragging, and portages.Low(none)(none)
USGSExternal icon USGS Site (External icon Google Maps)Poor - River is too low to float comfortably. Most or all riffles will drag or must be portaged and some obstacles (such as slick shelf rock) cause undue problems. Avoid the river at this stage for casual paddling trips.Poor(none)(none)

Trending Data

Plot Image

Trips for Osage River (Missouri), Tuscumbia (06926080)

DateStartEndDistanceConditionDischargeHeightFishingDetails

A total of 0 rows are displayed.

Condition Descriptions

Fishing Conditions

Fish Species

Notes

Classic Trip List

The classic River Trips application is still available for use. It is updated with the new system using a data retrofit. It is no longer maintained. The original River Trips application is no longer updated (as of 1 Dec 2016) but can be checked for errors or for the condition of the data before it was converted to the new system.

Gauge Data Table

ObservationHeightDischargeMaximum
Discharge
Minimum
Discharge
Mean
Discharge
P05P10P20P25P50
(Median)
P75P80P90P95
2020-07-13 20:00 2.08 1690 50200 (2019) 8790 (2018) 26900 8790 12400 24200 44000 50200
2020-07-13 19:00 2.08 1690 50200 (2019) 8790 (2018) 26900 8790 12400 24200 44000 50200
2020-07-13 18:00 2.07 1680 50200 (2019) 8790 (2018) 26900 8790 12400 24200 44000 50200
2020-07-13 17:00 2.07 1680 50200 (2019) 8790 (2018) 26900 8790 12400 24200 44000 50200
2020-07-13 16:00 2.08 1690 50200 (2019) 8790 (2018) 26900 8790 12400 24200 44000 50200
2020-07-13 15:00 2.08 1690 50200 (2019) 8790 (2018) 26900 8790 12400 24200 44000 50200
2020-07-13 14:00 2.09 1700 50200 (2019) 8790 (2018) 26900 8790 12400 24200 44000 50200
2020-07-13 13:00 2.10 1710 50200 (2019) 8790 (2018) 26900 8790 12400 24200 44000 50200
2020-07-13 12:00 2.11 1720 50200 (2019) 8790 (2018) 26900 8790 12400 24200 44000 50200
2020-07-13 11:00 2.13 1740 50200 (2019) 8790 (2018) 26900 8790 12400 24200 44000 50200
2020-07-13 10:00 2.15 1770 50200 (2019) 8790 (2018) 26900 8790 12400 24200 44000 50200
2020-07-13 09:00 2.17 1790 50200 (2019) 8790 (2018) 26900 8790 12400 24200 44000 50200
2020-07-13 08:00 2.20 1820 50200 (2019) 8790 (2018) 26900 8790 12400 24200 44000 50200
2020-07-13 07:00 2.23 1860 50200 (2019) 8790 (2018) 26900 8790 12400 24200 44000 50200
2020-07-13 06:00 2.26 1890 50200 (2019) 8790 (2018) 26900 8790 12400 24200 44000 50200
2020-07-13 05:00 2.31 1950 50200 (2019) 8790 (2018) 26900 8790 12400 24200 44000 50200
2020-07-13 04:00 2.34 1980 50200 (2019) 8790 (2018) 26900 8790 12400 24200 44000 50200
2020-07-13 03:00 2.39 2040 50200 (2019) 8790 (2018) 26900 8790 12400 24200 44000 50200
2020-07-13 02:00 2.43 2090 50200 (2019) 8790 (2018) 26900 8790 12400 24200 44000 50200
2020-07-13 01:00 2.46 2130 50200 (2019) 8790 (2018) 26900 8790 12400 24200 44000 50200
2020-07-13 00:00 2.48 2150 50200 (2019) 8790 (2018) 26900 8790 12400 24200 44000 50200
2020-07-12 23:00 2.48 2150 50300 (2019) 949 (2018) 24300 949 6110 23000 43800 50300
2020-07-12 22:00 2.44 2100 50300 (2019) 949 (2018) 24300 949 6110 23000 43800 50300
2020-07-12 21:00 2.38 2030 50300 (2019) 949 (2018) 24300 949 6110 23000 43800 50300
2020-07-12 20:00 2.33 1970 50300 (2019) 949 (2018) 24300 949 6110 23000 43800 50300
2020-07-12 19:00 2.27 1900 50300 (2019) 949 (2018) 24300 949 6110 23000 43800 50300
2020-07-12 18:00 2.23 1860 50300 (2019) 949 (2018) 24300 949 6110 23000 43800 50300
2020-07-12 17:00 2.22 1850 50300 (2019) 949 (2018) 24300 949 6110 23000 43800 50300
2020-07-12 16:00 2.20 1820 50300 (2019) 949 (2018) 24300 949 6110 23000 43800 50300
2020-07-12 15:00 2.19 1810 50300 (2019) 949 (2018) 24300 949 6110 23000 43800 50300
2020-07-12 14:00 2.17 1790 50300 (2019) 949 (2018) 24300 949 6110 23000 43800 50300
2020-07-12 13:00 2.15 1770 50300 (2019) 949 (2018) 24300 949 6110 23000 43800 50300
2020-07-12 12:00 2.14 1750 50300 (2019) 949 (2018) 24300 949 6110 23000 43800 50300
2020-07-12 11:00 2.14 1750 50300 (2019) 949 (2018) 24300 949 6110 23000 43800 50300
2020-07-12 10:00 2.15 1770 50300 (2019) 949 (2018) 24300 949 6110 23000 43800 50300
2020-07-12 09:00 2.17 1790 50300 (2019) 949 (2018) 24300 949 6110 23000 43800 50300
2020-07-12 08:00 2.19 1810 50300 (2019) 949 (2018) 24300 949 6110 23000 43800 50300
2020-07-12 07:00 2.20 1820 50300 (2019) 949 (2018) 24300 949 6110 23000 43800 50300
2020-07-12 06:00 2.21 1830 50300 (2019) 949 (2018) 24300 949 6110 23000 43800 50300
2020-07-12 05:00 2.20 1820 50300 (2019) 949 (2018) 24300 949 6110 23000 43800 50300
2020-07-12 04:00 2.18 1800 50300 (2019) 949 (2018) 24300 949 6110 23000 43800 50300
2020-07-12 03:00 2.14 1750 50300 (2019) 949 (2018) 24300 949 6110 23000 43800 50300
2020-07-12 02:00 2.09 1700 50300 (2019) 949 (2018) 24300 949 6110 23000 43800 50300
2020-07-12 01:00 2.07 1680 50300 (2019) 949 (2018) 24300 949 6110 23000 43800 50300
2020-07-12 00:00 2.07 1680 50300 (2019) 949 (2018) 24300 949 6110 23000 43800 50300
2020-07-11 23:00 2.08 1690 50200 (2019) 1140 (2018) 22600 1140 4930 19600 43300 50200
2020-07-11 22:00 2.09 1700 50200 (2019) 1140 (2018) 22600 1140 4930 19600 43300 50200
2020-07-11 21:00 2.08 1690 50200 (2019) 1140 (2018) 22600 1140 4930 19600 43300 50200
2020-07-11 20:00 2.11 1720 50200 (2019) 1140 (2018) 22600 1140 4930 19600 43300 50200
2020-07-11 19:00 2.11 1720 50200 (2019) 1140 (2018) 22600 1140 4930 19600 43300 50200
2020-07-11 18:00 2.12 1730 50200 (2019) 1140 (2018) 22600 1140 4930 19600 43300 50200
2020-07-11 17:00 2.13 1740 50200 (2019) 1140 (2018) 22600 1140 4930 19600 43300 50200
2020-07-11 16:00 2.15 1770 50200 (2019) 1140 (2018) 22600 1140 4930 19600 43300 50200
2020-07-11 15:00 2.17 1790 50200 (2019) 1140 (2018) 22600 1140 4930 19600 43300 50200
2020-07-11 14:00 2.20 1820 50200 (2019) 1140 (2018) 22600 1140 4930 19600 43300 50200
2020-07-11 13:00 2.24 1870 50200 (2019) 1140 (2018) 22600 1140 4930 19600 43300 50200
2020-07-11 12:00 2.28 1910 50200 (2019) 1140 (2018) 22600 1140 4930 19600 43300 50200
2020-07-11 11:00 2.33 1970 50200 (2019) 1140 (2018) 22600 1140 4930 19600 43300 50200
2020-07-11 10:00 2.38 2030 50200 (2019) 1140 (2018) 22600 1140 4930 19600 43300 50200
2020-07-11 09:00 2.44 2100 50200 (2019) 1140 (2018) 22600 1140 4930 19600 43300 50200
2020-07-11 08:00 2.49 2160 50200 (2019) 1140 (2018) 22600 1140 4930 19600 43300 50200
2020-07-11 07:00 2.55 2230 50200 (2019) 1140 (2018) 22600 1140 4930 19600 43300 50200
2020-07-11 06:00 2.59 2280 50200 (2019) 1140 (2018) 22600 1140 4930 19600 43300 50200
2020-07-11 05:00 2.60 2300 50200 (2019) 1140 (2018) 22600 1140 4930 19600 43300 50200
2020-07-11 04:00 2.58 2270 50200 (2019) 1140 (2018) 22600 1140 4930 19600 43300 50200
2020-07-11 03:00 2.52 2200 50200 (2019) 1140 (2018) 22600 1140 4930 19600 43300 50200
2020-07-11 02:00 2.41 2070 50200 (2019) 1140 (2018) 22600 1140 4930 19600 43300 50200
2020-07-11 01:00 2.34 1980 50200 (2019) 1140 (2018) 22600 1140 4930 19600 43300 50200
2020-07-11 00:00 2.34 1980 50200 (2019) 1140 (2018) 22600 1140 4930 19600 43300 50200
2020-07-10 23:00 2.39 2040 50500 (2019) 1110 (2018) 20600 1110 3480 15300 42900 50500
2020-07-10 22:00 2.46 2130 50500 (2019) 1110 (2018) 20600 1110 3480 15300 42900 50500
2020-07-10 21:00 2.53 2210 50500 (2019) 1110 (2018) 20600 1110 3480 15300 42900 50500
2020-07-10 20:00 2.61 2310 50500 (2019) 1110 (2018) 20600 1110 3480 15300 42900 50500
2020-07-10 19:00 2.72 2440 50500 (2019) 1110 (2018) 20600 1110 3480 15300 42900 50500
2020-07-10 18:00 2.83 2580 50500 (2019) 1110 (2018) 20600 1110 3480 15300 42900 50500
2020-07-10 17:00 2.98 2780 50500 (2019) 1110 (2018) 20600 1110 3480 15300 42900 50500
2020-07-10 16:00 3.14 2990 50500 (2019) 1110 (2018) 20600 1110 3480 15300 42900 50500
2020-07-10 15:00 3.33 3250 50500 (2019) 1110 (2018) 20600 1110 3480 15300 42900 50500
2020-07-10 14:00 3.55 3560 50500 (2019) 1110 (2018) 20600 1110 3480 15300 42900 50500
2020-07-10 13:00 3.79 3950 50500 (2019) 1110 (2018) 20600 1110 3480 15300 42900 50500
2020-07-10 12:00 4.06 4430 50500 (2019) 1110 (2018) 20600 1110 3480 15300 42900 50500
2020-07-10 11:00 4.37 4920 50500 (2019) 1110 (2018) 20600 1110 3480 15300 42900 50500
2020-07-10 10:00 4.72 5520 50500 (2019) 1110 (2018) 20600 1110 3480 15300 42900 50500
2020-07-10 09:00 5.12 6260 50500 (2019) 1110 (2018) 20600 1110 3480 15300 42900 50500
2020-07-10 08:00 5.55 7120 50500 (2019) 1110 (2018) 20600 1110 3480 15300 42900 50500
2020-07-10 07:00 6.03 8130 50500 (2019) 1110 (2018) 20600 1110 3480 15300 42900 50500
2020-07-10 06:00 6.56 9310 50500 (2019) 1110 (2018) 20600 1110 3480 15300 42900 50500
2020-07-10 05:00 7.13 10700 50500 (2019) 1110 (2018) 20600 1110 3480 15300 42900 50500
2020-07-10 04:00 7.74 12200 50500 (2019) 1110 (2018) 20600 1110 3480 15300 42900 50500
2020-07-10 03:00 8.40 13900 50500 (2019) 1110 (2018) 20600 1110 3480 15300 42900 50500
2020-07-10 02:00 9.08 15800 50500 (2019) 1110 (2018) 20600 1110 3480 15300 42900 50500
2020-07-10 01:00 9.74 17700 50500 (2019) 1110 (2018) 20600 1110 3480 15300 42900 50500
2020-07-10 00:00 10.17 19000 50500 (2019) 1110 (2018) 20600 1110 3480 15300 42900 50500
2020-07-09 23:00 9.67 17500 50600 (2019) 928 (2018) 19600 928 3220 13400 42100 50600
2020-07-09 22:00 7.09 10600 50600 (2019) 928 (2018) 19600 928 3220 13400 42100 50600
2020-07-09 21:00 3.61 3650 50600 (2019) 928 (2018) 19600 928 3220 13400 42100 50600
2020-07-09 20:00 3.09 2920 50600 (2019) 928 (2018) 19600 928 3220 13400 42100 50600
2020-07-09 19:00 3.24 3130 50600 (2019) 928 (2018) 19600 928 3220 13400 42100 50600
2020-07-09 18:00 3.41 3360 50600 (2019) 928 (2018) 19600 928 3220 13400 42100 50600
2020-07-09 17:00 3.61 3650 50600 (2019) 928 (2018) 19600 928 3220 13400 42100 50600
2020-07-09 16:00 3.81 3980 50600 (2019) 928 (2018) 19600 928 3220 13400 42100 50600
2020-07-09 15:00 4.04 4390 50600 (2019) 928 (2018) 19600 928 3220 13400 42100 50600
2020-07-09 14:00 4.30 4810 50600 (2019) 928 (2018) 19600 928 3220 13400 42100 50600
2020-07-09 13:00 4.62 5340 50600 (2019) 928 (2018) 19600 928 3220 13400 42100 50600
2020-07-09 12:00 4.97 5980 50600 (2019) 928 (2018) 19600 928 3220 13400 42100 50600
2020-07-09 11:00 5.36 6730 50600 (2019) 928 (2018) 19600 928 3220 13400 42100 50600
2020-07-09 10:00 5.78 7590 50600 (2019) 928 (2018) 19600 928 3220 13400 42100 50600
2020-07-09 09:00 6.21 8520 50600 (2019) 928 (2018) 19600 928 3220 13400 42100 50600
2020-07-09 08:00 6.65 9520 50600 (2019) 928 (2018) 19600 928 3220 13400 42100 50600
2020-07-09 07:00 7.08 10500 50600 (2019) 928 (2018) 19600 928 3220 13400 42100 50600
2020-07-09 06:00 7.50 11600 50600 (2019) 928 (2018) 19600 928 3220 13400 42100 50600
2020-07-09 05:00 8.02 12900 50600 (2019) 928 (2018) 19600 928 3220 13400 42100 50600
2020-07-09 04:00 8.67 14600 50600 (2019) 928 (2018) 19600 928 3220 13400 42100 50600
2020-07-09 03:00 9.40 16700 50600 (2019) 928 (2018) 19600 928 3220 13400 42100 50600
2020-07-09 02:00 10.12 18800 50600 (2019) 928 (2018) 19600 928 3220 13400 42100 50600
2020-07-09 01:00 10.70 20400 50600 (2019) 928 (2018) 19600 928 3220 13400 42100 50600
2020-07-09 00:00 10.65 20300 50600 (2019) 928 (2018) 19600 928 3220 13400 42100 50600
2020-07-08 23:00 8.77 14900 51000 (2019) 932 (2018) 23700 932 4300 21400 45400 51000
2020-07-08 22:00 5.38 6770 51000 (2019) 932 (2018) 23700 932 4300 21400 45400 51000
2020-07-08 21:00 2.89 2660 51000 (2019) 932 (2018) 23700 932 4300 21400 45400 51000
2020-07-08 20:00 2.76 2490 51000 (2019) 932 (2018) 23700 932 4300 21400 45400 51000
2020-07-08 19:00 2.76 2490 51000 (2019) 932 (2018) 23700 932 4300 21400 45400 51000
2020-07-08 18:00 2.77 2510 51000 (2019) 932 (2018) 23700 932 4300 21400 45400 51000
2020-07-08 17:00 2.83 2580 51000 (2019) 932 (2018) 23700 932 4300 21400 45400 51000
2020-07-08 16:00 2.93 2710 51000 (2019) 932 (2018) 23700 932 4300 21400 45400 51000
2020-07-08 15:00 3.07 2900 51000 (2019) 932 (2018) 23700 932 4300 21400 45400 51000
2020-07-08 14:00 3.23 3110 51000 (2019) 932 (2018) 23700 932 4300 21400 45400 51000
2020-07-08 13:00 3.41 3360 51000 (2019) 932 (2018) 23700 932 4300 21400 45400 51000
2020-07-08 12:00 3.61 3650 51000 (2019) 932 (2018) 23700 932 4300 21400 45400 51000
2020-07-08 11:00 3.85 4050 51000 (2019) 932 (2018) 23700 932 4300 21400 45400 51000
2020-07-08 10:00 4.11 4510 51000 (2019) 932 (2018) 23700 932 4300 21400 45400 51000
2020-07-08 09:00 4.42 5000 51000 (2019) 932 (2018) 23700 932 4300 21400 45400 51000
2020-07-08 08:00 4.75 5570 51000 (2019) 932 (2018) 23700 932 4300 21400 45400 51000
2020-07-08 07:00 5.12 6260 51000 (2019) 932 (2018) 23700 932 4300 21400 45400 51000
2020-07-08 06:00 5.52 7050 51000 (2019) 932 (2018) 23700 932 4300 21400 45400 51000
2020-07-08 05:00 5.95 7960 51000 (2019) 932 (2018) 23700 932 4300 21400 45400 51000
2020-07-08 04:00 6.39 8930 51000 (2019) 932 (2018) 23700 932 4300 21400 45400 51000
2020-07-08 03:00 6.83 9940 51000 (2019) 932 (2018) 23700 932 4300 21400 45400 51000
2020-07-08 02:00 7.26 11000 51000 (2019) 932 (2018) 23700 932 4300 21400 45400 51000
2020-07-08 01:00 7.71 12100 51000 (2019) 932 (2018) 23700 932 4300 21400 45400 51000
2020-07-08 00:00 8.27 13600 51000 (2019) 932 (2018) 23700 932 4300 21400 45400 51000
2020-07-07 23:00 8.95 15400 50600 (2019) 933 (2018) 26800 933 7250 27800 45300 50600
2020-07-07 22:00 9.67 17500 50600 (2019) 933 (2018) 26800 933 7250 27800 45300 50600
2020-07-07 21:00 10.28 19300 50600 (2019) 933 (2018) 26800 933 7250 27800 45300 50600
2020-07-07 20:00 10.49 19900 50600 (2019) 933 (2018) 26800 933 7250 27800 45300 50600
2020-07-07 19:00 9.32 16500 50600 (2019) 933 (2018) 26800 933 7250 27800 45300 50600
2020-07-07 18:00 7.01 10400 50600 (2019) 933 (2018) 26800 933 7250 27800 45300 50600
2020-07-07 17:00 4.93 5900 50600 (2019) 933 (2018) 26800 933 7250 27800 45300 50600
2020-07-07 16:00 4.36 4910 50600 (2019) 933 (2018) 26800 933 7250 27800 45300 50600
2020-07-07 15:00 4.50 5130 50600 (2019) 933 (2018) 26800 933 7250 27800 45300 50600
2020-07-07 14:00 4.84 5730 50600 (2019) 933 (2018) 26800 933 7250 27800 45300 50600
2020-07-07 13:00 5.22 6450 50600 (2019) 933 (2018) 26800 933 7250 27800 45300 50600
2020-07-07 12:00 5.64 7300 50600 (2019) 933 (2018) 26800 933 7250 27800 45300 50600
2020-07-07 11:00 6.09 8260 50600 (2019) 933 (2018) 26800 933 7250 27800 45300 50600
2020-07-07 10:00 6.58 9360 50600 (2019) 933 (2018) 26800 933 7250 27800 45300 50600
2020-07-07 09:00 7.09 10600 50600 (2019) 933 (2018) 26800 933 7250 27800 45300 50600
2020-07-07 08:00 7.60 11800 50600 (2019) 933 (2018) 26800 933 7250 27800 45300 50600
2020-07-07 07:00 8.11 13100 50600 (2019) 933 (2018) 26800 933 7250 27800 45300 50600
2020-07-07 06:00 8.69 14700 50600 (2019) 933 (2018) 26800 933 7250 27800 45300 50600
2020-07-07 05:00 9.44 16800 50600 (2019) 933 (2018) 26800 933 7250 27800 45300 50600
2020-07-07 04:00 10.31 19400 50600 (2019) 933 (2018) 26800 933 7250 27800 45300 50600
2020-07-07 03:00 11.29 22000 50600 (2019) 933 (2018) 26800 933 7250 27800 45300 50600
2020-07-07 02:00 12.32 24900 50600 (2019) 933 (2018) 26800 933 7250 27800 45300 50600
2020-07-07 01:00 13.40 28000 50600 (2019) 933 (2018) 26800 933 7250 27800 45300 50600
2020-07-07 00:00 14.24 30500 50600 (2019) 933 (2018) 26800 933 7250 27800 45300 50600
2020-07-06 23:00 13.99 29800 48000 (2019) 989 (2018) 24100 989 6120 23600 42400 48000
2020-07-06 22:00 13.45 28200 48000 (2019) 989 (2018) 24100 989 6120 23600 42400 48000
2020-07-06 21:00 12.87 26500 48000 (2019) 989 (2018) 24100 989 6120 23600 42400 48000
2020-07-06 20:00 12.27 24700 48000 (2019) 989 (2018) 24100 989 6120 23600 42400 48000
2020-07-06 19:00 11.77 23300 48000 (2019) 989 (2018) 24100 989 6120 23600 42400 48000
2020-07-06 18:00 10.47 19800 48000 (2019) 989 (2018) 24100 989 6120 23600 42400 48000
2020-07-06 17:00 8.45 14000 48000 (2019) 989 (2018) 24100 989 6120 23600 42400 48000
2020-07-06 16:00 5.31 6630 48000 (2019) 989 (2018) 24100 989 6120 23600 42400 48000
2020-07-06 15:00 2.68 2390 48000 (2019) 989 (2018) 24100 989 6120 23600 42400 48000
2020-07-06 14:00 2.28 1910 48000 (2019) 989 (2018) 24100 989 6120 23600 42400 48000
2020-07-06 13:00 2.26 1890 48000 (2019) 989 (2018) 24100 989 6120 23600 42400 48000
2020-07-06 12:00 2.27 1900 48000 (2019) 989 (2018) 24100 989 6120 23600 42400 48000
2020-07-06 11:00 2.28 1910 48000 (2019) 989 (2018) 24100 989 6120 23600 42400 48000
2020-07-06 10:00 2.29 1930 48000 (2019) 989 (2018) 24100 989 6120 23600 42400 48000
2020-07-06 09:00 2.30 1940 48000 (2019) 989 (2018) 24100 989 6120 23600 42400 48000
2020-07-06 08:00 2.31 1950 48000 (2019) 989 (2018) 24100 989 6120 23600 42400 48000
2020-07-06 07:00 2.33 1970 48000 (2019) 989 (2018) 24100 989 6120 23600 42400 48000
2020-07-06 06:00 2.34 1980 48000 (2019) 989 (2018) 24100 989 6120 23600 42400 48000
2020-07-06 05:00 2.35 2000 48000 (2019) 989 (2018) 24100 989 6120 23600 42400 48000
2020-07-06 04:00 2.36 2010 48000 (2019) 989 (2018) 24100 989 6120 23600 42400 48000
2020-07-06 03:00 2.36 2010 48000 (2019) 989 (2018) 24100 989 6120 23600 42400 48000
2020-07-06 02:00 2.36 2010 48000 (2019) 989 (2018) 24100 989 6120 23600 42400 48000
2020-07-06 01:00 2.35 2000 48000 (2019) 989 (2018) 24100 989 6120 23600 42400 48000
2020-07-06 00:00 2.34 1980 48000 (2019) 989 (2018) 24100 989 6120 23600 42400 48000

A total of 189 rows are displayed for years 2016 through 2019.